Time;durP1;ratioP1;P1;durP2;ratioP2;P2;SDS_P1;SDS_P2;PMS_P1;PMS_P2;Temp;Humidity;BMP_temperature;BMP_pressure;BME280_temperature;BME280_humidity;BME280_pressure;Samples;Min_cycle;Max_cycle;Signal;HPM_P1;HPM_P2
2022/01/17 00:01:01;;;;;;;9.35;2.42;;;;;;;5.88;100.00;103211.22;5073919;28;20052;-74
2022/01/17 00:07:18;;;;;;;8.82;2.25;;;;;;;5.68;100.00;103214.22;5085117;28;20186;-74
2022/01/17 00:10:00;;;;;;;9.93;2.67;;;;;;;5.65;100.00;103200.00;5085435;28;20059;-73
2022/01/17 00:12:58;;;;;;;6.78;2.10;;;;;;;5.50;100.00;103200.50;5072766;28;20063;-73
2022/01/17 00:16:11;;;;;;;10.57;2.35;;;;;;;5.31;100.00;103192.09;5068687;28;20052;-73
2022/01/17 00:22:36;;;;;;;7.32;2.05;;;;;;;5.23;100.00;103210.41;5084723;28;20048;-74
2022/01/17 00:26:04;;;;;;;11.27;2.58;;;;;;;5.07;100.00;103217.84;5071343;28;20044;-74
2022/01/17 00:29:15;;;;;;;12.43;2.28;;;;;;;5.07;100.00;103231.97;5065655;28;20098;-74
2022/01/17 00:38:58;;;;;;;9.35;2.15;;;;;;;4.79;100.00;103228.53;5030336;28;20050;-73
2022/01/17 00:55:24;;;;;;;5.88;1.90;;;;;;;4.26;100.00;103220.72;5035132;28;20140;-73
2022/01/17 01:02:17;;;;;;;8.68;2.70;;;;;;;4.10;100.00;103222.00;5013788;28;20313;-73
2022/01/17 01:04:47;;;;;;;7.63;1.83;;;;;;;3.95;100.00;103212.63;5014787;28;20527;-77
2022/01/17 01:07:15;;;;;;;13.45;2.17;;;;;;;3.93;100.00;103218.78;5014922;28;20076;-78
2022/01/17 01:09:52;;;;;;;11.82;2.13;;;;;;;3.86;100.00;103208.84;5016350;28;20799;-78
2022/01/17 01:12:20;;;;;;;9.43;2.60;;;;;;;3.84;100.00;103202.63;5029935;28;20102;-78
2022/01/17 01:14:49;;;;;;;9.55;2.15;;;;;;;3.82;100.00;103208.72;5053774;28;20040;-79
2022/01/17 01:17:31;;;;;;;11.30;1.85;;;;;;;3.77;100.00;103215.56;5052841;28;20067;-79
2022/01/17 01:20:09;;;;;;;10.60;2.17;;;;;;;3.68;100.00;103214.41;5051179;28;20609;-78
2022/01/17 01:28:07;;;;;;;8.52;1.77;;;;;;;3.57;100.00;103223.69;5054357;28;20570;-78
2022/01/17 01:30:40;;;;;;;12.30;2.25;;;;;;;3.56;100.00;103221.91;5090450;27;20066;-76
2022/01/17 01:33:09;;;;;;;9.57;1.77;;;;;;;3.55;100.00;103228.91;5089399;27;20100;-76
2022/01/17 01:36:06;;;;;;;9.80;2.35;;;;;;;3.52;100.00;103230.56;5091490;27;20704;-79
2022/01/17 01:38:35;;;;;;;5.85;2.03;;;;;;;3.50;100.00;103233.13;5091235;27;20520;-78
2022/01/17 01:41:03;;;;;;;15.68;2.45;;;;;;;3.48;100.00;103236.59;5090125;28;20062;-78
2022/01/17 01:43:31;;;;;;;10.50;2.20;;;;;;;3.46;100.00;103240.91;5091475;27;20043;-78
2022/01/17 01:46:02;;;;;;;9.23;2.10;;;;;;;3.38;100.00;103248.53;5090160;28;20387;-78
2022/01/17 01:48:36;;;;;;;10.65;2.47;;;;;;;3.34;100.00;103242.25;5088780;27;20043;-77
2022/01/17 01:51:04;;;;;;;6.25;2.28;;;;;;;3.29;100.00;103248.22;5089642;27;20047;-77
2022/01/17 01:53:32;;;;;;;8.63;2.33;;;;;;;3.20;100.00;103238.19;5086458;27;20059;-77
2022/01/17 01:56:01;;;;;;;9.02;2.10;;;;;;;3.27;100.00;103244.59;5089871;27;20139;-78
2022/01/17 01:58:29;;;;;;;9.52;1.98;;;;;;;3.18;100.00;103253.09;5087593;27;20139;-77
2022/01/17 02:01:42;;;;;;;9.32;2.40;;;;;;;3.16;100.00;103249.50;5086070;28;20072;-74
2022/01/17 02:08:05;;;;;;;9.43;2.00;;;;;;;3.02;100.00;103249.00;5086429;28;20047;-74
2022/01/17 02:11:31;;;;;;;10.10;1.95;;;;;;;3.00;100.00;103237.50;5076416;28;20572;-74
2022/01/17 02:14:54;;;;;;;18.63;2.33;;;;;;;2.93;100.00;103235.47;5088827;27;20683;-74
2022/01/17 02:17:54;;;;;;;10.18;2.40;;;;;;;2.90;100.00;103230.97;5068147;28;20051;-74
2022/01/17 02:21:31;;;;;;;17.48;2.72;;;;;;;2.88;100.00;103224.75;5087526;27;20104;-74
2022/01/17 02:24:51;;;;;;;5.05;2.03;;;;;;;2.87;100.00;103216.75;5077340;27;20084;-75
2022/01/17 02:37:53;;;;;;;16.15;2.67;;;;;;;2.78;100.00;103219.94;5089125;28;20288;-75
2022/01/17 02:41:00;;;;;;;10.20;2.60;;;;;;;2.82;100.00;103223.59;5089311;27;20168;-73
2022/01/17 02:44:00;;;;;;;7.57;2.38;;;;;;;2.75;100.00;103227.75;5058802;28;20044;-73
2022/01/17 02:49:40;;;;;;;13.82;2.55;;;;;;;2.72;100.00;103235.53;5078081;27;20149;-73
2022/01/17 02:56:14;;;;;;;13.73;4.10;;;;;;;2.58;100.00;103249.06;5090482;27;20140;-75
2022/01/17 02:58:42;;;;;;;9.88;2.42;;;;;;;2.62;100.00;103244.81;5087573;27;20075;-76
2022/01/17 03:01:14;;;;;;;11.85;3.05;;;;;;;2.63;100.00;103236.06;5089191;27;20112;-76
2022/01/17 03:03:42;;;;;;;6.20;2.75;;;;;;;2.51;100.00;103240.88;5086613;28;20127;-76
2022/01/17 03:06:13;;;;;;;11.20;3.08;;;;;;;2.58;100.00;103237.63;5087124;28;20115;-75
2022/01/17 03:08:42;;;;;;;13.25;3.25;;;;;;;2.65;100.00;103228.22;5084421;28;20087;-77
2022/01/17 03:14:35;;;;;;;12.93;3.67;;;;;;;2.64;100.00;103245.78;5079967;28;20063;-75
2022/01/17 03:17:29;;;;;;;20.10;3.83;;;;;;;2.67;100.00;103243.25;5084417;27;20067;-75
2022/01/17 03:20:45;;;;;;;12.57;3.88;;;;;;;2.77;100.00;103241.88;5089174;28;20047;-75
2022/01/17 03:23:22;;;;;;;15.15;4.28;;;;;;;2.65;100.00;103236.13;5086791;27;20563;-75
2022/01/17 03:29:00;;;;;;;15.93;5.57;;;;;;;2.96;100.00;103232.91;5086545;28;20059;-75
2022/01/17 03:37:57;;;;;;;13.05;6.15;;;;;;;2.95;100.00;103220.59;5085853;28;20047;-73
2022/01/17 03:40:38;;;;;;;13.40;5.93;;;;;;;3.17;100.00;103212.63;5084969;27;20065;-74
2022/01/17 03:44:04;;;;;;;14.77;6.25;;;;;;;3.17;100.00;103207.34;5085187;28;20099;-75
2022/01/17 03:50:17;;;;;;;17.60;6.85;;;;;;;3.19;100.00;103223.22;5082629;28;20463;-74
2022/01/17 03:55:54;;;;;;;20.38;7.07;;;;;;;3.31;100.00;103213.13;5063506;28;20055;-72
2022/01/17 03:58:41;;;;;;;25.45;7.68;;;;;;;3.27;100.00;103210.31;5086696;28;20044;-75
2022/01/17 04:02:25;;;;;;;26.13;8.55;;;;;;;3.37;100.00;103215.06;5061651;27;20500;-75
2022/01/17 04:14:10;;;;;;;26.40;9.35;;;;;;;3.58;100.00;103217.59;5046319;28;20041;-77
2022/01/17 04:16:38;;;;;;;28.50;9.70;;;;;;;3.48;100.00;103226.03;5039760;28;20054;-77
2022/01/17 04:19:17;;;;;;;25.27;9.35;;;;;;;3.56;100.00;103221.91;5041815;28;20176;-74
2022/01/17 04:26:14;;;;;;;20.52;8.85;;;;;;;3.67;100.00;103243.41;5043318;28;20075;-74
2022/01/17 04:28:54;;;;;;;20.70;9.93;;;;;;;3.62;100.00;103232.66;5033706;28;20779;-74
2022/01/17 04:31:51;;;;;;;27.58;10.35;;;;;;;3.64;100.00;103243.28;5044879;28;20133;-74
2022/01/17 04:35:53;;;;;;;21.52;9.95;;;;;;;3.71;100.00;103254.13;5043477;28;20090;-74
2022/01/17 04:41:53;;;;;;;26.27;9.88;;;;;;;3.84;100.00;103249.28;5041087;28;20045;-74
2022/01/17 04:48:31;;;;;;;26.00;10.05;;;;;;;3.69;100.00;103254.91;5042060;28;20512;-74
2022/01/17 04:55:02;;;;;;;28.17;9.45;;;;;;;3.60;100.00;103255.50;2714707;27;67448060;-75
2022/01/17 04:58:29;;;;;;;25.60;8.35;;;;;;;3.55;100.00;103257.06;5085909;28;20083;-72
2022/01/17 05:08:37;;;;;;;24.58;8.52;;;;;;;3.53;100.00;103262.28;5084869;28;20062;-73
2022/01/17 05:12:00;;;;;;;25.20;8.88;;;;;;;3.53;100.00;103267.56;5079970;28;20733;-72
2022/01/17 05:21:43;;;;;;;20.48;7.78;;;;;;;3.47;100.00;103264.69;5086408;28;20052;-72
2022/01/17 05:24:20;;;;;;;18.73;9.10;;;;;;;3.40;100.00;103267.97;5074784;28;20120;-74
2022/01/17 05:27:01;;;;;;;29.27;10.43;;;;;;;3.51;100.00;103269.25;5068713;28;20048;-73
2022/01/17 05:29:41;;;;;;;28.23;10.40;;;;;;;3.58;100.00;103277.41;5086253;28;20058;-73
2022/01/17 05:32:20;;;;;;;22.83;8.65;;;;;;;3.50;100.00;103279.75;5068664;28;20051;-73
2022/01/17 05:35:04;;;;;;;32.20;9.80;;;;;;;3.63;100.00;103281.13;5085443;28;20056;-74
2022/01/17 05:38:11;;;;;;;31.83;10.57;;;;;;;3.70;100.00;103277.84;5074996;28;20232;-74
2022/01/17 05:40:42;;;;;;;30.98;11.43;;;;;;;3.66;100.00;103274.19;5086246;28;20532;-76
2022/01/17 05:43:10;;;;;;;27.65;11.30;;;;;;;3.77;100.00;103281.59;5085386;28;20550;-77
2022/01/17 05:46:25;;;;;;;26.35;11.05;;;;;;;3.84;100.00;103265.13;5087545;28;20134;-75
2022/01/17 05:52:44;;;;;;;33.67;13.07;;;;;;;3.89;100.00;103258.25;5082324;28;20476;-72
2022/01/17 05:59:15;;;;;;;41.40;15.23;;;;;;;3.92;100.00;103266.28;5085150;28;20059;-74
2022/01/17 06:06:10;;;;;;;49.97;15.75;;;;;;;3.98;100.00;103270.88;5069271;28;20384;-73
2022/01/17 06:09:30;;;;;;;44.53;16.50;;;;;;;4.01;100.00;103274.50;5061079;28;20416;-74
2022/01/17 06:12:55;;;;;;;39.63;16.05;;;;;;;4.01;100.00;103285.06;5050240;28;20859;-74
2022/01/17 06:22:28;;;;;;;43.63;16.58;;;;;;;3.99;100.00;103288.53;5067537;28;20075;-73
2022/01/17 06:25:00;;;;;;;46.47;15.18;;;;;;;3.93;100.00;103300.69;5071807;28;20550;-76
2022/01/17 06:27:29;;;;;;;43.42;15.05;;;;;;;4.01;100.00;103308.84;5069855;28;20460;-75
2022/01/17 06:29:57;;;;;;;36.70;13.88;;;;;;;4.04;100.00;103330.09;5069302;28;20560;-75
2022/01/17 06:36:07;;;;;;;38.40;13.95;;;;;;;3.88;100.00;103299.63;5069435;28;20059;-72
2022/01/17 06:45:32;;;;;;;32.17;10.27;;;;;;;3.93;100.00;103313.91;5070523;28;20048;-73
2022/01/17 06:48:26;;;;;;;32.72;12.60;;;;;;;3.87;100.00;103299.56;5069628;28;20492;-71
2022/01/17 06:50:59;;;;;;;30.92;11.50;;;;;;;3.81;100.00;103307.25;5070854;28;20117;-71
2022/01/17 06:56:43;;;;;;;27.95;10.13;;;;;;;3.84;100.00;103324.13;5067197;28;20466;-71
2022/01/17 06:59:23;;;;;;;29.38;9.75;;;;;;;3.82;100.00;103346.94;5070594;28;20066;-72
2022/01/17 07:01:52;;;;;;;22.70;9.27;;;;;;;3.78;100.00;103354.69;5069676;28;20082;-73
2022/01/17 07:04:20;;;;;;;28.60;9.80;;;;;;;3.74;100.00;103365.13;5073158;28;20059;-74
2022/01/17 07:06:48;;;;;;;24.60;9.48;;;;;;;3.80;100.00;103390.91;5070933;28;20575;-72
2022/01/17 07:09:19;;;;;;;25.40;8.90;;;;;;;3.70;100.00;103376.44;5068632;28;20052;-71
2022/01/17 07:11:47;;;;;;;25.15;8.57;;;;;;;3.61;100.00;103370.84;5070034;28;20059;-71
2022/01/17 07:14:15;;;;;;;23.83;8.02;;;;;;;3.59;100.00;103366.31;5070980;28;20082;-71
2022/01/17 07:16:45;;;;;;;21.83;7.78;;;;;;;3.57;100.00;103362.75;5071636;28;20135;-70
2022/01/17 07:19:12;;;;;;;20.58;7.05;;;;;;;3.52;100.00;103354.63;5070307;28;20419;-70
2022/01/17 07:21:40;;;;;;;19.55;6.50;;;;;;;3.51;100.00;103353.75;5072023;28;20503;-73
2022/01/17 07:24:28;;;;;;;21.05;7.68;;;;;;;3.49;100.00;103349.22;5066513;28;20052;-72
2022/01/17 07:26:56;;;;;;;18.25;5.70;;;;;;;3.58;100.00;103351.34;5070065;28;20047;-72
2022/01/17 07:29:26;;;;;;;16.40;5.90;;;;;;;3.58;100.00;103372.47;5070266;28;20052;-71
2022/01/17 07:31:56;;;;;;;24.63;6.40;;;;;;;3.51;100.00;103369.59;5072153;28;20048;-75
2022/01/17 07:34:24;;;;;;;19.02;6.30;;;;;;;3.50;100.00;103364.25;5066254;28;20052;-76
2022/01/17 07:36:52;;;;;;;22.05;7.47;;;;;;;3.53;100.00;103383.75;5053967;28;20040;-76
2022/01/17 07:39:20;;;;;;;18.73;7.20;;;;;;;3.62;100.00;103392.84;5069723;28;20044;-74
2022/01/17 07:41:48;;;;;;;29.77;7.38;;;;;;;3.81;100.00;103395.31;5067745;28;20054;-73
2022/01/17 07:44:19;;;;;;;29.55;6.55;;;;;;;3.83;100.00;103392.72;5069933;28;20299;-74
2022/01/17 07:46:50;;;;;;;18.73;5.93;;;;;;;3.90;100.00;103400.97;5069658;28;20222;-74
2022/01/17 07:49:20;;;;;;;20.27;6.30;;;;;;;4.01;100.00;103393.41;5067999;28;20188;-74
2022/01/17 07:51:56;;;;;;;20.58;5.82;;;;;;;3.98;100.00;103403.84;5070025;28;20088;-74
2022/01/17 07:54:25;;;;;;;19.35;5.93;;;;;;;4.08;100.00;103400.69;5072746;28;20044;-75
2022/01/17 07:57:16;;;;;;;17.23;6.32;;;;;;;4.06;100.00;103399.75;5071111;28;20111;-73
2022/01/17 07:59:45;;;;;;;17.02;5.13;;;;;;;4.04;100.00;103396.16;5070204;28;20449;-75
2022/01/17 08:02:12;;;;;;;20.23;6.20;;;;;;;4.06;100.00;103412.06;5068443;28;20545;-74
2022/01/17 08:04:42;;;;;;;22.83;6.70;;;;;;;4.18;100.00;103427.47;5069839;28;20067;-75
2022/01/17 08:07:10;;;;;;;19.42;5.75;;;;;;;4.22;100.00;103424.09;5069378;28;20106;-75
2022/01/17 08:09:38;;;;;;;21.58;6.70;;;;;;;4.20;100.00;103416.09;5066987;28;20052;-74
2022/01/17 08:12:08;;;;;;;19.77;6.20;;;;;;;4.22;100.00;103411.78;5069865;28;20056;-75
2022/01/17 08:14:36;;;;;;;20.00;6.18;;;;;;;4.31;100.00;103413.84;5070974;28;20102;-75
2022/01/17 08:17:05;;;;;;;22.92;5.53;;;;;;;4.36;100.00;103412.28;5069499;28;20139;-74
2022/01/17 08:19:33;;;;;;;17.88;5.70;;;;;;;4.39;100.00;103416.75;5067304;28;20067;-75
2022/01/17 08:22:05;;;;;;;19.42;6.00;;;;;;;4.41;100.00;103417.69;5071386;28;20132;-75
2022/01/17 08:24:35;;;;;;;19.05;6.57;;;;;;;4.45;100.00;103423.16;5070155;28;20099;-75
2022/01/17 08:27:04;;;;;;;23.27;6.15;;;;;;;4.47;100.00;103424.09;5069836;28;20304;-75
2022/01/17 08:29:36;;;;;;;19.35;5.25;;;;;;;4.54;100.00;103422.56;5068019;28;20054;-76
2022/01/17 08:32:05;;;;;;;18.60;6.03;;;;;;;4.55;100.00;103427.00;5068253;28;20135;-74
2022/01/17 08:34:33;;;;;;;19.48;6.13;;;;;;;4.64;100.00;103423.78;5069968;28;20133;-75
2022/01/17 08:37:03;;;;;;;23.83;5.93;;;;;;;4.65;100.00;103426.47;5067954;28;20056;-75
2022/01/17 08:39:55;;;;;;;29.50;7.60;;;;;;;4.70;100.00;103423.06;5069384;28;20104;-74
2022/01/17 08:42:23;;;;;;;24.65;6.15;;;;;;;4.79;100.00;103426.03;5069730;28;20572;-75
2022/01/17 08:44:51;;;;;;;28.40;6.38;;;;;;;4.95;100.00;103407.16;5066946;28;20076;-75
2022/01/17 08:47:20;;;;;;;21.10;4.78;;;;;;;4.97;100.00;103405.50;5070062;28;20471;-75
2022/01/17 08:49:52;;;;;;;31.02;6.30;;;;;;;4.95;100.00;103414.22;5070011;28;20128;-75
2022/01/17 08:52:22;;;;;;;24.83;6.03;;;;;;;5.05;100.00;103417.19;5069794;28;20160;-75
2022/01/17 08:54:50;;;;;;;17.90;4.88;;;;;;;5.03;100.00;103416.25;5069935;28;20135;-75
2022/01/17 08:57:18;;;;;;;22.98;4.78;;;;;;;5.17;100.00;103429.03;5064895;28;20208;-75
2022/01/17 08:59:47;;;;;;;20.80;4.97;;;;;;;5.17;100.00;103445.78;5068753;28;20055;-75
2022/01/17 09:02:15;;;;;;;14.18;4.72;;;;;;;5.27;100.00;103440.81;5067554;28;20056;-75
2022/01/17 09:04:43;;;;;;;30.67;5.20;;;;;;;5.30;100.00;103447.09;5069647;28;20049;-74
2022/01/17 09:07:12;;;;;;;18.05;4.80;;;;;;;5.37;100.00;103451.72;5068985;28;20059;-75
2022/01/17 09:09:44;;;;;;;17.83;5.25;;;;;;;5.40;100.00;103451.81;5066314;28;20075;-75
2022/01/17 09:12:14;;;;;;;16.05;4.00;;;;;;;5.47;100.00;103457.31;5069215;28;20339;-75
2022/01/17 09:14:42;;;;;;;22.85;5.30;;;;;;;5.54;100.00;103459.31;5067862;28;20054;-75
2022/01/17 09:17:12;;;;;;;23.05;4.93;;;;;;;5.61;100.00;103467.47;5070381;28;20352;-74
2022/01/17 09:19:41;;;;;;;20.35;4.93;;;;;;;5.70;100.00;103484.50;5069221;28;20450;-75
2022/01/17 09:22:10;;;;;;;22.50;5.72;;;;;;;5.70;100.00;103476.56;5070860;28;20245;-75
2022/01/17 09:24:39;;;;;;;18.23;4.38;;;;;;;5.72;100.00;103490.75;5069709;28;20045;-74
2022/01/17 09:27:10;;;;;;;18.83;3.75;;;;;;;5.76;100.00;103476.75;5070606;28;20052;-75
2022/01/17 09:29:38;;;;;;;22.42;4.45;;;;;;;5.84;100.00;103483.19;5069935;28;20094;-75
2022/01/17 09:32:07;;;;;;;22.52;4.15;;;;;;;5.90;100.00;103482.47;5070660;28;20048;-75
2022/01/17 09:34:59;;;;;;;27.42;5.68;;;;;;;5.91;100.00;103482.50;5066479;28;20059;-75
2022/01/17 09:37:27;;;;;;;17.48;4.53;;;;;;;5.95;100.00;103470.22;5070608;28;20415;-75
2022/01/17 09:39:55;;;;;;;21.27;5.75;;;;;;;6.00;100.00;103475.72;5073206;28;20076;-75
2022/01/17 09:42:25;;;;;;;17.35;4.68;;;;;;;6.06;100.00;103475.88;5073421;28;20075;-75
2022/01/17 09:45:20;;;;;;;31.60;4.80;;;;;;;6.09;100.00;103479.50;5071835;28;20059;-75
2022/01/17 09:47:49;;;;;;;17.02;3.78;;;;;;;6.09;100.00;103489.22;5068628;28;20271;-75
2022/01/17 09:50:22;;;;;;;20.17;5.00;;;;;;;6.12;100.00;103489.31;5073455;28;20080;-75
2022/01/17 09:52:51;;;;;;;24.67;4.75;;;;;;;6.14;100.00;103496.44;5073966;28;20080;-76
2022/01/17 09:55:22;;;;;;;19.75;4.70;;;;;;;6.20;100.00;103506.34;5069657;28;20048;-75
2022/01/17 09:57:54;;;;;;;17.65;3.83;;;;;;;6.24;100.00;103504.69;5071876;28;20055;-76
2022/01/17 10:00:25;;;;;;;14.27;3.20;;;;;;;6.33;100.00;103504.91;5073983;28;20098;-77
2022/01/17 10:02:53;;;;;;;21.20;4.85;;;;;;;6.38;100.00;103505.06;5072867;28;20151;-77
2022/01/17 10:05:22;;;;;;;24.38;5.00;;;;;;;6.41;100.00;103510.47;5074161;28;20191;-77
2022/01/17 10:07:56;;;;;;;23.40;4.78;;;;;;;6.46;100.00;103517.69;5074288;28;20140;-77
2022/01/17 10:10:34;;;;;;;12.60;3.95;;;;;;;6.47;100.00;103507.94;5072236;28;20044;-77
2022/01/17 10:13:09;;;;;;;14.05;3.13;;;;;;;6.52;100.00;103527.53;5074858;28;20055;-76
2022/01/17 10:15:48;;;;;;;16.13;4.28;;;;;;;6.51;100.00;103512.50;5074595;28;20059;-76
2022/01/17 10:18:32;;;;;;;23.38;5.78;;;;;;;6.56;100.00;103524.13;5074232;28;20143;-75
2022/01/17 10:21:06;;;;;;;20.05;4.85;;;;;;;6.56;100.00;103528.56;5073642;28;20170;-76
2022/01/17 10:23:59;;;;;;;18.92;4.22;;;;;;;6.59;100.00;103529.53;5071495;28;20164;-76
2022/01/17 10:26:58;;;;;;;14.55;4.13;;;;;;;6.61;100.00;103527.81;5071426;28;20078;-75
2022/01/17 10:29:54;;;;;;;19.20;4.68;;;;;;;6.64;100.00;103538.53;5074347;28;20059;-76
2022/01/17 10:35:49;;;;;;;18.95;4.20;;;;;;;6.70;100.00;103535.13;5072213;28;20488;-74
2022/01/17 10:39:05;;;;;;;25.60;5.32;;;;;;;6.71;100.00;103537.81;5073715;28;20539;-77
2022/01/17 10:41:57;;;;;;;14.15;3.90;;;;;;;6.78;100.00;103549.50;5071918;28;20512;-76
2022/01/17 10:51:06;;;;;;;21.27;3.92;;;;;;;6.89;100.00;103541.81;5068931;28;20564;-74
2022/01/17 10:57:29;;;;;;;16.40;3.72;;;;;;;6.96;100.00;103546.41;5072540;28;20075;-75
2022/01/17 11:03:27;;;;;;;21.95;4.45;;;;;;;6.99;100.00;103554.47;5022956;28;20056;-75
2022/01/17 11:06:20;;;;;;;18.58;3.92;;;;;;;7.01;100.00;103567.78;5070308;28;20515;-74
2022/01/17 11:15:25;;;;;;;15.52;4.85;;;;;;;7.10;100.00;103576.91;5068096;28;20053;-74
2022/01/17 11:18:17;;;;;;;26.20;5.43;;;;;;;7.07;100.00;103579.47;5069724;28;20082;-74
2022/01/17 11:20:58;;;;;;;22.85;4.45;;;;;;;7.11;100.00;103581.34;5071354;28;20144;-74
2022/01/17 11:27:06;;;;;;;22.88;4.43;;;;;;;7.14;100.00;103580.53;5069753;28;23388;-74
2022/01/17 11:36:34;;;;;;;18.73;4.28;;;;;;;7.17;100.00;103570.00;5068262;28;20744;-77
2022/01/17 11:39:02;;;;;;;14.27;3.97;;;;;;;7.18;100.00;103569.13;5070628;28;20052;-77
2022/01/17 11:41:34;;;;;;;13.82;3.78;;;;;;;7.22;100.00;103578.06;5068643;28;20322;-77
2022/01/17 11:44:04;;;;;;;23.30;4.45;;;;;;;7.25;100.00;103575.47;5071725;28;20093;-77
2022/01/17 11:46:35;;;;;;;14.13;3.72;;;;;;;7.30;100.00;103587.13;5070208;28;20094;-77
2022/01/17 11:49:09;;;;;;;26.30;6.18;;;;;;;7.28;100.00;103580.88;5069261;28;20251;-77
2022/01/17 11:51:40;;;;;;;21.33;3.95;;;;;;;7.29;100.00;103582.69;5070627;28;20086;-77
2022/01/17 11:54:14;;;;;;;22.58;3.97;;;;;;;7.35;100.00;103589.91;5069613;28;20075;-77
2022/01/17 11:56:48;;;;;;;23.35;3.88;;;;;;;7.37;100.00;103606.78;5069565;28;20083;-77
2022/01/17 11:59:35;;;;;;;21.20;4.72;;;;;;;7.36;100.00;103599.69;5071422;28;20134;-77
2022/01/17 12:02:26;;;;;;;32.20;4.35;;;;;;;7.38;100.00;103604.16;5067882;28;20087;-77
2022/01/17 12:05:42;;;;;;;18.75;3.30;;;;;;;7.42;100.00;103610.44;5070525;28;20048;-76
2022/01/17 12:08:16;;;;;;;17.83;4.35;;;;;;;7.43;100.00;103599.84;5069933;28;20066;-77
2022/01/17 12:10:47;;;;;;;11.95;3.67;;;;;;;7.45;100.00;103610.53;5066847;28;20056;-77
2022/01/17 12:13:39;;;;;;;12.10;3.08;;;;;;;7.46;100.00;103617.66;5069385;28;20131;-77
2022/01/17 12:16:31;;;;;;;17.58;3.72;;;;;;;7.50;100.00;103608.88;5068823;28;20111;-76
2022/01/17 12:19:11;;;;;;;12.68;3.45;;;;;;;7.52;100.00;103612.47;5069178;28;20500;-76
2022/01/17 12:22:07;;;;;;;23.58;4.68;;;;;;;7.52;100.00;103592.97;5070062;28;20059;-76
2022/01/17 12:24:41;;;;;;;21.77;3.90;;;;;;;7.47;100.00;103577.84;5065765;28;20079;-76
2022/01/17 12:27:19;;;;;;;21.13;4.03;;;;;;;7.46;100.00;103565.41;5068268;28;20139;-76
2022/01/17 12:30:15;;;;;;;22.58;4.13;;;;;;;7.51;100.00;103561.94;5069661;28;20056;-76
2022/01/17 12:32:52;;;;;;;21.95;4.63;;;;;;;7.51;100.00;103584.13;5066307;28;20048;-76
2022/01/17 12:35:46;;;;;;;16.88;3.30;;;;;;;7.51;100.00;103604.47;5069069;28;20084;-74
2022/01/17 12:42:00;;;;;;;22.85;3.40;;;;;;;7.53;100.00;103611.63;5065488;28;20279;-74
2022/01/17 12:45:10;;;;;;;16.85;3.00;;;;;;;7.54;100.00;103609.84;5055869;28;20499;-75
2022/01/17 12:48:04;;;;;;;17.45;3.33;;;;;;;7.56;100.00;103611.72;5068521;28;20129;-77
2022/01/17 12:50:34;;;;;;;17.17;3.47;;;;;;;7.58;100.00;103614.41;5066771;28;20542;-76
2022/01/17 12:53:03;;;;;;;17.63;3.53;;;;;;;7.65;100.00;103606.59;5067577;28;20141;-77
2022/01/17 12:55:38;;;;;;;19.55;3.92;;;;;;;7.61;100.00;103595.84;5068412;28;20083;-77
2022/01/17 12:58:16;;;;;;;17.42;3.30;;;;;;;7.74;100.00;103587.31;5066148;28;20583;-77
2022/01/17 13:00:50;;;;;;;23.67;4.38;;;;;;;7.83;100.00;103587.53;5067759;28;20170;-77
2022/01/17 13:03:20;;;;;;;17.48;4.45;;;;;;;7.91;100.00;103585.03;5069439;28;20052;-77
2022/01/17 13:05:48;;;;;;;21.20;4.10;;;;;;;7.97;100.00;103563.94;5067259;28;20043;-77
2022/01/17 13:08:16;;;;;;;18.58;3.92;;;;;;;7.95;100.00;103570.06;5065685;28;20062;-77
2022/01/17 13:10:48;;;;;;;19.10;4.03;;;;;;;8.09;100.00;103579.25;5067971;28;20052;-78
2022/01/17 13:13:18;;;;;;;34.45;6.28;;;;;;;8.14;100.00;103588.22;5071839;28;20595;-77
2022/01/17 13:16:00;;;;;;;17.70;4.25;;;;;;;8.01;100.00;103595.03;5069945;28;20138;-77
2022/01/17 13:18:30;;;;;;;17.83;3.63;;;;;;;8.04;100.00;103589.78;5074225;28;20044;-77
2022/01/17 13:21:00;;;;;;;18.35;3.45;;;;;;;8.08;100.00;103606.69;5074740;28;20056;-77
2022/01/17 13:23:37;;;;;;;16.02;4.15;;;;;;;8.14;100.00;103597.94;5074269;28;20048;-77
2022/01/17 13:26:09;;;;;;;19.70;4.22;;;;;;;8.12;100.00;103584.66;5074644;28;20046;-77
2022/01/17 13:28:39;;;;;;;19.95;4.15;;;;;;;8.16;100.00;103582.94;5074825;28;20048;-77
2022/01/17 13:31:16;;;;;;;23.00;4.30;;;;;;;8.16;100.00;103578.50;5073648;28;20049;-77
2022/01/17 13:33:44;;;;;;;15.60;3.95;;;;;;;8.17;100.00;103587.38;5072912;28;20054;-77
2022/01/17 13:36:20;;;;;;;17.88;4.25;;;;;;;8.16;100.00;103567.88;5066414;28;20055;-77
2022/01/17 13:39:01;;;;;;;16.45;3.63;;;;;;;8.19;100.00;103567.06;5074653;28;20151;-77
2022/01/17 13:41:30;;;;;;;20.73;4.05;;;;;;;8.19;100.00;103567.94;5073201;28;20420;-77
2022/01/17 13:43:59;;;;;;;28.05;5.22;;;;;;;8.10;100.00;103567.72;5073010;28;20066;-77
2022/01/17 13:46:30;;;;;;;20.08;3.30;;;;;;;8.14;100.00;103569.63;5073592;28;20051;-79
2022/01/17 13:48:58;;;;;;;20.05;3.85;;;;;;;8.07;100.00;103572.09;5073874;28;20071;-77
2022/01/17 13:51:27;;;;;;;19.60;3.92;;;;;;;8.05;100.00;103596.00;5073147;28;20051;-77
2022/01/17 13:53:56;;;;;;;19.00;4.55;;;;;;;8.03;100.00;103595.06;5075648;28;20551;-77
2022/01/17 13:56:33;;;;;;;23.15;4.50;;;;;;;8.07;100.00;103611.97;5073140;28;20147;-77
2022/01/17 13:59:03;;;;;;;12.82;3.70;;;;;;;8.03;100.00;103614.56;5072469;28;20056;-78
2022/01/17 14:01:37;;;;;;;19.20;3.72;;;;;;;8.04;100.00;103615.50;5074481;28;20054;-79
2022/01/17 14:04:16;;;;;;;22.50;4.22;;;;;;;8.04;100.00;103610.16;5075294;28;20044;-81
2022/01/17 14:06:44;;;;;;;21.20;3.70;;;;;;;8.00;100.00;103602.97;5071714;28;20040;-80
2022/01/17 14:09:13;;;;;;;18.02;3.92;;;;;;;8.00;100.00;103585.28;5070465;28;20121;-80
2022/01/17 14:11:43;;;;;;;17.67;3.90;;;;;;;7.92;100.00;103573.56;5073795;28;20208;-79
2022/01/17 14:14:17;;;;;;;20.20;4.18;;;;;;;7.91;100.00;103574.41;5072108;28;20491;-79
2022/01/17 14:16:44;;;;;;;16.83;3.97;;;;;;;7.86;100.00;103586.69;5070876;28;20051;-79
2022/01/17 14:19:16;;;;;;;14.68;3.65;;;;;;;7.87;100.00;103580.53;5072403;28;20048;-79
2022/01/17 14:21:48;;;;;;;23.23;3.60;;;;;;;7.80;100.00;103591.91;5072517;28;20502;-75
2022/01/17 14:24:19;;;;;;;20.70;4.18;;;;;;;7.83;100.00;103592.88;5072736;28;20121;-79
2022/01/17 14:38:14;;;;;;;14.82;2.97;;;;;;;7.78;100.00;103622.84;4999493;28;20061;-75
2022/01/17 14:40:41;;;;;;;21.23;3.40;;;;;;;7.79;100.00;103616.66;5009332;28;20076;-78
2022/01/17 14:43:12;;;;;;;21.05;5.22;;;;;;;7.71;100.00;103621.78;5008245;28;20140;-78
2022/01/17 14:45:48;;;;;;;27.58;5.32;;;;;;;7.78;100.00;103623.75;5008815;28;20269;-79
2022/01/17 15:03:41;;;;;;;24.83;4.57;;;;;;;7.51;100.00;103678.84;4953621;28;20058;-74
2022/01/17 15:44:25;;;;;;;23.08;4.68;;;;;;;6.92;100.00;103731.28;4857385;29;20106;-74
2022/01/17 15:46:55;;;;;;;15.73;3.78;;;;;;;6.88;100.00;103731.16;4894141;29;20063;-72
2022/01/17 15:49:23;;;;;;;24.52;4.82;;;;;;;6.84;100.00;103726.59;4897510;29;20378;-72
2022/01/17 15:51:54;;;;;;;18.58;4.03;;;;;;;6.84;100.00;103713.31;4894099;29;20048;-74
2022/01/17 15:54:29;;;;;;;19.73;4.10;;;;;;;6.82;100.00;103728.31;4894013;29;20107;-74
2022/01/17 15:57:07;;;;;;;23.83;4.55;;;;;;;6.74;100.00;103730.72;4894186;29;20083;-74
2022/01/17 16:01:14;;;;;;;27.40;4.45;;;;;;;6.73;100.00;103732.47;4888092;29;20055;-74
2022/01/17 16:55:48;;;;;;;23.50;5.25;;;;;;;5.75;100.00;103727.53;4856046;29;20059;-78
2022/01/17 16:58:20;;;;;;;26.17;5.40;;;;;;;5.76;100.00;103734.66;4859267;29;20160;-79
2022/01/17 17:00:53;;;;;;;21.98;4.80;;;;;;;5.72;100.00;103746.00;4857692;29;20045;-79
2022/01/17 17:03:21;;;;;;;27.42;5.10;;;;;;;5.69;100.00;103750.31;4859685;29;20250;-79
2022/01/17 17:05:49;;;;;;;30.83;5.97;;;;;;;5.66;100.00;103760.78;4856426;29;20460;-78
2022/01/17 17:08:17;;;;;;;28.83;7.80;;;;;;;5.61;100.00;103764.16;4950613;28;20982;-78
2022/01/17 17:10:45;;;;;;;27.65;5.80;;;;;;;5.52;100.00;103753.25;4991308;28;20141;-78
2022/01/17 17:13:14;;;;;;;17.13;4.78;;;;;;;5.52;100.00;103755.91;4993914;28;20057;-78